createdAt,value
2017-05-06T00:00:54.416Z,11.50
2017-05-06T00:03:21.222Z,11.60
2017-05-06T00:05:48.009Z,11.60
2017-05-06T00:08:15.619Z,11.70
2017-05-06T00:10:42.406Z,11.70
2017-05-06T00:13:09.216Z,11.50
2017-05-06T00:15:43.808Z,11.50
2017-05-06T00:18:10.588Z,11.50
2017-05-06T00:20:37.364Z,11.40
2017-05-06T00:23:04.941Z,11.30
2017-05-06T00:25:31.719Z,11.30
2017-05-06T00:27:58.496Z,11.30
2017-05-06T00:30:32.351Z,11.30
2017-05-06T00:32:59.124Z,11.30
2017-05-06T00:35:25.908Z,11.30
2017-05-06T00:37:53.469Z,11.30
2017-05-06T00:40:20.288Z,11.30
2017-05-06T00:42:47.088Z,11.30
2017-05-06T00:45:13.922Z,11.30
2017-05-06T00:47:40.700Z,11.30
2017-05-06T00:50:07.520Z,11.30
2017-05-06T00:52:34.309Z,11.40
2017-05-06T00:55:01.148Z,11.40
2017-05-06T00:57:28.668Z,11.40
2017-05-06T00:59:55.452Z,11.40
2017-05-06T01:02:22.276Z,11.40
2017-05-06T01:04:49.056Z,11.50
2017-05-06T01:07:15.936Z,11.40
2017-05-06T01:09:42.716Z,11.40
2017-05-06T01:12:09.492Z,11.40
2017-05-06T01:14:36.360Z,11.40
2017-05-06T01:17:03.189Z,11.30
2017-05-06T01:19:30.028Z,11.30
2017-05-06T01:21:56.816Z,11.30
2017-05-06T01:24:23.621Z,11.40
2017-05-06T01:26:50.452Z,11.30
2017-05-06T01:29:17.235Z,11.30
2017-05-06T01:31:44.077Z,11.40
2017-05-06T01:34:17.776Z,11.30
2017-05-06T01:36:45.350Z,11.20
2017-05-06T01:39:12.172Z,11.30
2017-05-06T01:41:38.956Z,11.30
2017-05-06T01:44:12.824Z,11.30
2017-05-06T01:46:39.607Z,11.30
2017-05-06T01:49:07.154Z,11.40
2017-05-06T01:51:34.724Z,11.50
2017-05-06T01:54:01.509Z,11.40
2017-05-06T01:56:29.075Z,11.30
2017-05-06T01:58:55.857Z,11.40
2017-05-06T02:01:22.716Z,11.30
2017-05-06T02:03:50.240Z,11.20
2017-05-06T02:06:17.024Z,11.20
2017-05-06T02:08:43.900Z,11.20
2017-05-06T02:11:10.688Z,11.10
2017-05-06T02:13:37.480Z,11.20
2017-05-06T02:16:05.296Z,11.20
2017-05-06T02:18:32.134Z,11.20
2017-05-06T02:20:58.920Z,11.20
2017-05-06T02:23:25.702Z,11.20
2017-05-06T02:25:53.280Z,11.10
2017-05-06T02:28:20.059Z,11.30
2017-05-06T02:30:46.900Z,11.30
2017-05-06T02:33:14.431Z,11.30
2017-05-06T02:35:41.220Z,11.30
2017-05-06T02:38:08.040Z,11.30
2017-05-06T02:40:34.852Z,11.40
2017-05-06T02:43:01.696Z,11.50
2017-05-06T02:45:28.488Z,11.50
2017-05-06T02:47:56.007Z,11.50
2017-05-06T02:50:22.851Z,11.40
2017-05-06T02:52:49.692Z,11.40
2017-05-06T02:55:17.216Z,11.30
2017-05-06T02:57:44.057Z,11.40
2017-05-06T03:00:11.614Z,11.30
2017-05-06T03:02:39.139Z,11.40
2017-05-06T03:05:05.968Z,11.40
2017-05-06T03:07:32.756Z,11.40
2017-05-06T03:09:59.535Z,11.60
2017-05-06T03:12:27.099Z,11.70
2017-05-06T03:14:53.889Z,11.80
2017-05-06T03:17:20.727Z,11.80
2017-05-06T03:19:47.544Z,11.70
2017-05-06T03:22:14.380Z,11.70
2017-05-06T03:24:41.164Z,11.80
2017-05-06T03:27:07.992Z,11.70
2017-05-06T03:29:34.833Z,11.70
2017-05-06T03:32:01.613Z,11.60
2017-05-06T03:34:29.135Z,11.60
2017-05-06T03:36:55.968Z,11.70
2017-05-06T03:39:22.763Z,11.70
2017-05-06T03:41:49.558Z,11.60
2017-05-06T03:44:16.397Z,11.50
2017-05-06T03:46:43.180Z,11.50
2017-05-06T03:49:10.752Z,11.60
2017-05-06T03:51:37.535Z,11.70
2017-05-06T03:54:04.363Z,11.60
2017-05-06T03:56:31.144Z,11.50
2017-05-06T03:58:57.932Z,11.50
2017-05-06T04:01:25.505Z,11.50
2017-05-06T04:03:52.292Z,11.50
2017-05-06T04:06:19.079Z,11.60
2017-05-06T04:08:45.908Z,11.60
2017-05-06T04:11:12.695Z,11.50
2017-05-06T04:13:40.316Z,11.70
2017-05-06T04:16:07.109Z,11.50
2017-05-06T04:18:33.943Z,11.60
2017-05-06T04:21:00.780Z,11.60
2017-05-06T04:23:27.573Z,11.60
2017-05-06T04:25:54.407Z,11.70
2017-05-06T04:28:21.268Z,11.70
2017-05-06T04:30:48.112Z,11.60
2017-05-06T04:33:14.943Z,11.60
2017-05-06T04:35:41.729Z,11.60
2017-05-06T04:38:08.556Z,11.70
2017-05-06T04:40:35.346Z,11.70
2017-05-06T04:43:02.976Z,11.80
2017-05-06T04:45:29.763Z,11.80
2017-05-06T04:47:56.560Z,11.80
2017-05-06T04:50:24.136Z,11.80
2017-05-06T04:52:50.939Z,11.80
2017-05-06T04:55:17.728Z,11.70
2017-05-06T04:57:44.584Z,11.70
2017-05-06T05:00:12.120Z,11.70
2017-05-06T05:02:39.653Z,11.70
2017-05-06T05:05:06.494Z,11.80
2017-05-06T05:07:34.033Z,11.90
2017-05-06T05:10:00.848Z,12.00
2017-05-06T05:12:27.673Z,12.00
2017-05-06T05:14:54.508Z,12.00
2017-05-06T05:17:21.410Z,11.90
2017-05-06T05:19:48.224Z,12.00
2017-05-06T05:22:15.088Z,11.90
2017-05-06T05:24:41.885Z,11.90
2017-05-06T05:27:08.717Z,12.00
2017-05-06T05:29:35.545Z,12.10
2017-05-06T05:32:02.332Z,12.10
2017-05-06T05:34:29.895Z,12.20
2017-05-06T05:36:56.684Z,12.30
2017-05-06T05:39:23.532Z,12.40
2017-05-06T05:41:50.352Z,12.50
2017-05-06T05:44:17.898Z,12.50
2017-05-06T05:46:45.468Z,12.60
2017-05-06T05:49:12.296Z,12.70
2017-05-06T05:51:39.145Z,12.70
2017-05-06T05:54:05.940Z,12.80
2017-05-06T05:56:32.727Z,12.80
2017-05-06T05:58:59.651Z,12.80
2017-05-06T06:01:26.636Z,13.00
2017-05-06T06:03:53.437Z,13.00
2017-05-06T06:06:20.308Z,13.10
2017-05-06T06:11:20.876Z,13.20
2017-05-06T06:13:47.664Z,13.20
2017-05-06T06:16:14.451Z,13.10
2017-05-06T06:18:42.088Z,13.10
2017-05-06T06:21:09.612Z,13.00
2017-05-06T06:23:36.401Z,13.00
2017-05-06T06:26:03.260Z,13.00
2017-05-06T06:28:30.051Z,13.10
2017-05-06T06:30:56.843Z,13.10
2017-05-06T06:33:23.673Z,13.10
2017-05-06T06:35:50.512Z,13.20
2017-05-06T06:38:18.092Z,13.30
2017-05-06T06:40:44.895Z,13.40
2017-05-06T06:43:11.672Z,13.40
2017-05-06T06:45:38.524Z,13.40
2017-05-06T06:48:05.322Z,13.40
2017-05-06T06:50:32.103Z,13.50
2017-05-06T06:52:58.931Z,13.40
2017-05-06T06:55:25.767Z,13.50
2017-05-06T06:57:52.621Z,13.50
2017-05-06T07:00:19.444Z,13.50
2017-05-06T07:02:46.253Z,13.60
2017-05-06T07:05:13.099Z,13.50
2017-05-06T07:07:39.896Z,13.70
2017-05-06T07:10:06.680Z,13.80
2017-05-06T07:12:33.540Z,14.00
2017-05-06T07:15:01.064Z,14.00
2017-05-06T07:17:27.912Z,14.10
2017-05-06T07:19:55.579Z,14.20
2017-05-06T07:22:23.131Z,14.10
2017-05-06T07:24:49.933Z,14.00
2017-05-06T07:27:17.504Z,14.00
2017-05-06T07:29:44.332Z,14.10
2017-05-06T07:32:11.114Z,14.20
2017-05-06T07:34:37.937Z,14.10
2017-05-06T07:37:04.724Z,14.10
2017-05-06T07:39:31.548Z,14.10
2017-05-06T07:41:58.328Z,14.20
2017-05-06T07:44:25.117Z,14.30
2017-05-06T07:46:51.943Z,14.30
2017-05-06T07:49:18.727Z,14.20
2017-05-06T07:51:46.291Z,14.20
2017-05-06T07:54:13.075Z,14.20
2017-05-06T07:56:39.912Z,14.30
2017-05-06T07:59:06.695Z,14.40
2017-05-06T08:01:33.476Z,14.40
2017-05-06T08:04:01.031Z,14.40
2017-05-06T08:06:35.475Z,14.30
2017-05-06T08:09:02.264Z,14.20
2017-05-06T08:11:29.797Z,14.30
2017-05-06T08:13:57.405Z,14.30
2017-05-06T08:16:24.205Z,14.40
2017-05-06T08:18:51.104Z,14.30
2017-05-06T08:21:18.657Z,14.30
2017-05-06T08:23:46.288Z,14.40
2017-05-06T08:26:13.111Z,14.20
2017-05-06T08:28:39.900Z,14.40
2017-05-06T08:31:06.727Z,14.50
2017-05-06T08:33:33.503Z,14.50
2017-05-06T08:36:01.033Z,14.30
2017-05-06T08:38:27.859Z,14.50
2017-05-06T08:40:54.669Z,14.80
2017-05-06T08:43:21.526Z,14.80
2017-05-06T08:45:48.318Z,14.90
2017-05-06T08:48:15.099Z,15.00
2017-05-06T08:50:42.660Z,15.10
2017-05-06T08:53:09.444Z,15.10
2017-05-06T08:55:36.328Z,15.10
2017-05-06T08:58:03.112Z,15.20
2017-05-06T09:00:30.640Z,15.20
2017-05-06T09:02:57.468Z,15.20
2017-05-06T09:05:24.272Z,15.30
2017-05-06T09:07:51.124Z,15.20
2017-05-06T09:10:17.908Z,15.30
2017-05-06T09:12:44.756Z,15.30
2017-05-06T09:15:11.637Z,15.40
2017-05-06T09:17:39.221Z,15.40
2017-05-06T09:20:06.124Z,15.40
2017-05-06T09:22:32.920Z,15.40
2017-05-06T09:24:59.712Z,15.40
2017-05-06T09:27:26.535Z,15.50
2017-05-06T09:29:53.348Z,15.50
2017-05-06T09:32:20.194Z,15.40
2017-05-06T09:34:46.993Z,15.50
2017-05-06T09:37:13.796Z,15.90
2017-05-06T09:39:40.631Z,16.10
2017-05-06T09:42:08.168Z,16.30
2017-05-06T09:44:35.007Z,16.50
2017-05-06T09:47:02.536Z,16.80
2017-05-06T09:49:29.378Z,17.00
2017-05-06T09:51:56.916Z,17.10
2017-05-06T09:54:23.711Z,17.30
2017-05-06T09:56:50.724Z,17.40
2017-05-06T09:59:17.546Z,17.50
2017-05-06T10:01:44.356Z,17.70
2017-05-06T10:04:11.209Z,17.80
2017-05-06T10:06:38.051Z,17.90
2017-05-06T10:09:04.858Z,18.00
2017-05-06T10:11:31.704Z,18.10
2017-05-06T10:13:58.503Z,18.00
2017-05-06T10:16:25.359Z,18.00
2017-05-06T10:18:52.200Z,18.00
2017-05-06T10:21:19.038Z,18.10
2017-05-06T10:23:45.884Z,18.10
2017-05-06T10:26:12.763Z,18.20
2017-05-06T10:28:39.549Z,18.30
2017-05-06T10:31:07.121Z,18.40
2017-05-06T10:33:36.465Z,18.50
2017-05-06T10:36:03.640Z,18.40
2017-05-06T10:38:30.533Z,18.50
2017-05-06T10:40:57.380Z,18.50
2017-05-06T10:43:24.976Z,18.50
2017-05-06T10:45:51.837Z,18.50
2017-05-06T10:48:18.732Z,18.40
2017-05-06T10:50:45.583Z,18.50
2017-05-06T10:53:12.380Z,18.60
2017-05-06T10:55:39.223Z,18.70
2017-05-06T10:58:06.004Z,18.90
2017-05-06T11:00:33.550Z,18.90
2017-05-06T11:03:01.126Z,19.10
2017-05-06T11:05:27.916Z,19.30
2017-05-06T11:07:55.455Z,19.40
2017-05-06T11:10:22.285Z,19.40
2017-05-06T11:12:49.814Z,19.40
2017-05-06T11:15:20.549Z,19.50
2017-05-06T11:17:48.087Z,19.60
2017-05-06T11:20:14.960Z,19.60
2017-05-06T11:22:41.751Z,19.50
2017-05-06T11:25:09.316Z,19.60
2017-05-06T11:27:36.168Z,19.70
2017-05-06T11:30:02.959Z,19.90
2017-05-06T11:32:30.485Z,20.00
2017-05-06T11:34:57.325Z,20.10
2017-05-06T11:37:24.200Z,20.10
2017-05-06T11:39:51.005Z,20.30
2017-05-06T11:42:17.792Z,20.50
2017-05-06T11:44:44.637Z,20.50
2017-05-06T11:47:12.169Z,20.60
2017-05-06T11:49:38.959Z,20.80
2017-05-06T11:52:05.779Z,21.00
2017-05-06T11:54:32.578Z,21.10
2017-05-06T11:56:59.413Z,21.20
2017-05-06T11:59:26.204Z,21.30
2017-05-06T12:01:53.045Z,21.40
2017-05-06T12:04:20.598Z,21.60
2017-05-06T12:06:48.204Z,21.70
2017-05-06T12:09:15.054Z,21.80
2017-05-06T12:11:42.298Z,21.90
2017-05-06T12:14:09.112Z,21.50
2017-05-06T12:16:36.228Z,21.30
2017-05-06T12:19:03.026Z,21.30
2017-05-06T12:21:29.851Z,21.40
2017-05-06T12:23:56.693Z,21.50
2017-05-06T12:26:23.494Z,21.60
2017-05-06T12:28:51.099Z,22.40
2017-05-06T12:31:17.898Z,24.10
2017-05-06T12:33:44.671Z,26.20
2017-05-06T12:36:11.487Z,26.80
2017-05-06T12:38:38.259Z,26.80
2017-05-06T12:41:05.051Z,27.70
2017-05-06T12:43:31.879Z,26.80
2017-05-06T12:45:58.655Z,25.80
2017-05-06T12:48:25.475Z,25.30
2017-05-06T12:50:52.290Z,25.00
2017-05-06T12:53:19.123Z,24.50
2017-05-06T12:55:45.899Z,23.90
2017-05-06T12:58:12.778Z,23.60
2017-05-06T13:00:39.579Z,23.30
2017-05-06T13:03:06.491Z,22.80
2017-05-06T13:05:33.289Z,22.50
2017-05-06T13:08:00.178Z,22.20
2017-05-06T13:13:19.094Z,22.60
2017-05-06T13:15:45.884Z,22.50
2017-05-06T13:18:12.744Z,22.60
2017-05-06T13:20:39.539Z,22.70
2017-05-06T13:23:06.349Z,22.70
2017-05-06T13:25:33.180Z,22.60
2017-05-06T13:27:59.976Z,22.40
2017-05-06T13:30:26.848Z,22.50
2017-05-06T13:32:53.675Z,22.30
2017-05-06T13:35:20.463Z,22.20
2017-05-06T13:37:47.303Z,22.00
2017-05-06T13:40:14.836Z,21.50
2017-05-06T13:42:41.617Z,21.30
2017-05-06T13:45:08.448Z,21.00
2017-05-06T13:47:35.268Z,20.80
2017-05-06T13:50:02.112Z,20.60
2017-05-06T13:52:28.893Z,20.40
2017-05-06T13:54:56.431Z,20.30
2017-05-06T13:57:24.040Z,20.10
2017-05-06T13:59:50.836Z,20.10
2017-05-06T14:02:17.636Z,20.10
2017-05-06T14:04:45.204Z,20.00
2017-05-06T14:07:12.375Z,20.10
2017-05-06T14:09:39.177Z,20.40
2017-05-06T14:12:05.969Z,20.80
2017-05-06T14:14:32.791Z,21.50
2017-05-06T14:17:01.977Z,22.00
2017-05-06T14:19:30.019Z,22.40
2017-05-06T14:21:56.915Z,22.40
2017-05-06T14:24:23.889Z,22.40
2017-05-06T14:26:50.694Z,22.40
2017-05-06T14:29:17.494Z,22.50
2017-05-06T14:31:44.315Z,22.90
2017-05-06T14:34:11.103Z,23.80
2017-05-06T14:36:38.628Z,24.60
2017-05-06T14:39:06.548Z,24.70
2017-05-06T14:41:33.897Z,24.80
2017-05-06T14:44:00.715Z,24.10
2017-05-06T14:46:27.608Z,23.70
2017-05-06T14:48:55.186Z,24.30
2017-05-06T14:51:21.992Z,24.50
2017-05-06T14:53:48.839Z,24.70
2017-05-06T14:56:15.644Z,25.10
2017-05-06T14:58:42.471Z,24.90
2017-05-06T15:01:09.362Z,24.70
2017-05-06T15:03:36.175Z,24.10
2017-05-06T15:06:03.016Z,23.50
2017-05-06T15:08:29.804Z,23.00
2017-05-06T15:10:56.636Z,22.60
2017-05-06T15:13:23.435Z,22.30
2017-05-06T15:15:50.984Z,22.70
2017-05-06T15:18:18.564Z,23.40
2017-05-06T15:20:45.392Z,23.90
2017-05-06T15:23:12.211Z,23.60
2017-05-06T15:25:39.035Z,23.00
2017-05-06T15:28:05.825Z,22.50
2017-05-06T15:30:33.387Z,22.20
2017-05-06T15:33:00.919Z,21.50
2017-05-06T15:35:28.476Z,21.30
2017-05-06T15:37:56.071Z,21.10
2017-05-06T15:40:22.859Z,20.90
2017-05-06T15:42:49.675Z,20.70
2017-05-06T15:45:17.259Z,20.50
2017-05-06T15:47:44.044Z,20.70
2017-05-06T15:50:11.572Z,20.80
2017-05-06T15:52:38.475Z,21.00
2017-05-06T15:55:05.275Z,21.10
2017-05-06T15:57:32.060Z,21.00
2017-05-06T15:59:59.622Z,21.00
2017-05-06T16:02:27.143Z,21.00
2017-05-06T16:04:53.924Z,21.00
2017-05-06T16:07:20.797Z,20.80
2017-05-06T16:09:47.612Z,20.70
2017-05-06T16:12:14.431Z,20.50
2017-05-06T16:14:41.220Z,20.50
2017-05-06T16:17:08.092Z,20.50
2017-05-06T16:19:34.935Z,20.40
2017-05-06T16:22:01.724Z,20.40
2017-05-06T16:24:28.503Z,20.40
2017-05-06T16:26:55.361Z,20.50
2017-05-06T16:29:22.166Z,20.60
2017-05-06T16:31:49.696Z,20.70
2017-05-06T16:34:16.916Z,20.80
2017-05-06T16:36:43.711Z,20.80
2017-05-06T16:39:10.519Z,20.70
2017-05-06T16:41:37.606Z,20.70
2017-05-06T16:44:04.395Z,20.70
2017-05-06T16:46:31.236Z,20.60
2017-05-06T16:48:58.028Z,20.60
2017-05-06T16:51:25.550Z,20.50
2017-05-06T16:53:52.408Z,20.40
2017-05-06T16:56:19.928Z,20.40
2017-05-06T16:58:46.757Z,20.30
2017-05-06T17:01:13.601Z,20.30
2017-05-06T17:03:39.655Z,20.20
2017-05-06T17:06:06.456Z,20.10
2017-05-06T17:08:33.296Z,20.00
2017-05-06T17:11:00.090Z,20.00
2017-05-06T17:13:27.608Z,19.90
2017-05-06T17:15:54.448Z,19.80
2017-05-06T17:18:21.327Z,19.70
2017-05-06T17:20:48.152Z,19.60
2017-05-06T17:23:14.941Z,19.60
2017-05-06T17:25:42.544Z,19.30
2017-05-06T17:28:09.336Z,19.20
2017-05-06T17:30:36.124Z,19.10
2017-05-06T17:33:02.981Z,19.10
2017-05-06T17:35:30.523Z,18.90
2017-05-06T17:37:58.048Z,18.90
2017-05-06T17:40:24.875Z,18.80
2017-05-06T17:42:51.707Z,18.70
2017-05-06T17:45:18.527Z,18.70
2017-05-06T17:47:45.313Z,18.60
2017-05-06T17:50:12.095Z,18.50
2017-05-06T17:52:38.924Z,18.40
2017-05-06T17:55:05.750Z,18.40
2017-05-06T17:57:33.285Z,18.30
2017-05-06T18:00:00.912Z,18.20
2017-05-06T18:02:27.700Z,18.20
2017-05-06T18:04:54.484Z,18.10
2017-05-06T18:07:21.329Z,18.00
2017-05-06T18:09:48.924Z,17.90
2017-05-06T18:12:15.712Z,17.80
2017-05-06T18:14:43.317Z,17.70
2017-05-06T18:17:10.172Z,17.60
2017-05-06T18:19:36.976Z,17.70
2017-05-06T18:22:03.780Z,17.50
2017-05-06T18:24:30.647Z,17.50
2017-05-06T18:26:57.435Z,17.50
2017-05-06T18:29:24.388Z,17.30
2017-05-06T18:31:51.196Z,17.30
2017-05-06T18:34:18.028Z,17.20
2017-05-06T18:36:44.897Z,17.10
2017-05-06T18:39:11.684Z,17.10
2017-05-06T18:41:38.516Z,17.00
2017-05-06T18:44:05.403Z,16.90
2017-05-06T18:46:32.935Z,16.80
2017-05-06T18:49:00.476Z,16.70
2017-05-06T18:51:28.064Z,16.70
2017-05-06T18:53:54.861Z,16.70
2017-05-06T18:56:22.405Z,16.70
2017-05-06T18:58:49.978Z,16.70
2017-05-06T19:01:16.807Z,16.60
2017-05-06T19:03:43.602Z,16.60
2017-05-06T19:06:11.137Z,16.50
2017-05-06T19:08:37.954Z,16.50
2017-05-06T19:11:04.791Z,16.50
2017-05-06T19:13:31.584Z,16.50
2017-05-06T19:15:58.364Z,16.50
2017-05-06T19:18:25.947Z,16.40
2017-05-06T19:20:52.762Z,16.40
2017-05-06T19:23:19.548Z,16.40
2017-05-06T19:25:46.380Z,16.30
2017-05-06T19:28:13.164Z,16.30
2017-05-06T19:30:39.964Z,16.30
2017-05-06T19:33:06.808Z,16.20
2017-05-06T19:35:33.588Z,16.30
2017-05-06T19:38:00.403Z,16.20
2017-05-06T19:40:27.272Z,16.20
2017-05-06T19:42:54.103Z,16.10
2017-05-06T19:45:20.953Z,16.10
2017-05-06T19:47:47.779Z,16.10
2017-05-06T19:50:14.632Z,16.10
2017-05-06T19:52:41.415Z,16.00
2017-05-06T19:55:08.204Z,15.90
2017-05-06T19:57:35.039Z,15.80
2017-05-06T20:00:01.915Z,15.80
2017-05-06T20:02:29.074Z,15.70
2017-05-06T20:04:55.892Z,15.70
2017-05-06T20:07:29.588Z,15.70
2017-05-06T20:09:56.431Z,15.60
2017-05-06T20:12:23.244Z,15.60
2017-05-06T20:14:50.032Z,15.60
2017-05-06T20:17:16.872Z,15.50
2017-05-06T20:19:43.732Z,15.60
2017-05-06T20:22:10.556Z,15.60
2017-05-06T20:24:37.391Z,15.50
2017-05-06T20:27:04.185Z,15.40
2017-05-06T20:29:30.998Z,15.30
2017-05-06T20:31:57.841Z,15.20
2017-05-06T20:34:24.712Z,15.10
2017-05-06T20:36:51.516Z,15.00
2017-05-06T20:39:18.304Z,15.00
2017-05-06T20:41:45.932Z,14.90
2017-05-06T20:44:12.712Z,14.80
2017-05-06T20:46:39.569Z,14.70
2017-05-06T20:49:06.361Z,14.70
2017-05-06T20:51:33.195Z,14.60
2017-05-06T20:53:59.976Z,14.60
2017-05-06T20:56:27.840Z,14.40
2017-05-06T20:58:54.672Z,14.30
2017-05-06T21:01:22.476Z,14.30
2017-05-06T21:03:49.292Z,14.20
2017-05-06T21:06:16.339Z,14.10
2017-05-06T21:08:43.159Z,14.10
2017-05-06T21:11:09.941Z,14.00
2017-05-06T21:13:37.457Z,13.80
2017-05-06T21:16:04.280Z,13.80
2017-05-06T21:18:31.071Z,13.80
2017-05-06T21:20:58.179Z,13.70
2017-05-06T21:23:25.001Z,13.80
2017-05-06T21:25:52.532Z,13.80
2017-05-06T21:28:20.248Z,13.70
2017-05-06T21:30:47.039Z,13.60
2017-05-06T21:33:13.819Z,13.50
2017-05-06T21:35:40.676Z,13.50
2017-05-06T21:38:08.205Z,13.40
2017-05-06T21:40:35.728Z,13.20
2017-05-06T21:43:02.854Z,13.30
2017-05-06T21:45:29.648Z,13.30
2017-05-06T21:47:56.423Z,13.30
2017-05-06T21:50:23.266Z,13.20
2017-05-06T21:52:50.056Z,13.10
2017-05-06T21:55:16.836Z,13.10
2017-05-06T21:57:44.417Z,13.00
2017-05-06T22:00:11.211Z,13.00
2017-05-06T22:02:37.997Z,12.90
2017-05-06T22:05:11.708Z,12.80
2017-05-06T22:07:38.520Z,12.70
2017-05-06T22:10:05.311Z,12.70
2017-05-06T22:12:32.114Z,12.60
2017-05-06T22:14:58.943Z,12.50
2017-05-06T22:17:25.728Z,12.40
2017-05-06T22:19:52.549Z,12.40
2017-05-06T22:22:19.412Z,12.40
2017-05-06T22:24:46.943Z,12.40
2017-05-06T22:27:13.715Z,12.30
2017-05-06T22:29:40.799Z,12.30
2017-05-06T22:32:07.584Z,12.20
2017-05-06T22:34:34.423Z,12.10
2017-05-06T22:37:01.220Z,12.00
2017-05-06T22:39:28.004Z,12.00
2017-05-06T22:41:54.832Z,11.90
2017-05-06T22:44:21.733Z,11.90
2017-05-06T22:46:48.547Z,11.80
2017-05-06T22:49:22.350Z,11.80
2017-05-06T22:51:49.184Z,11.80
2017-05-06T22:54:15.979Z,11.70
2017-05-06T22:56:42.759Z,11.70
2017-05-06T22:59:09.575Z,11.60
2017-05-06T23:01:36.355Z,11.60
2017-05-06T23:04:03.192Z,11.60
2017-05-06T23:06:29.976Z,11.60
2017-05-06T23:08:56.812Z,11.60
2017-05-06T23:11:23.604Z,11.60
2017-05-06T23:13:50.421Z,11.60
2017-05-06T23:16:17.239Z,11.60
2017-05-06T23:18:44.057Z,11.60
2017-05-06T23:21:10.895Z,11.50
2017-05-06T23:23:37.667Z,11.50
2017-05-06T23:26:04.462Z,11.50
2017-05-06T23:28:31.285Z,11.40
2017-05-06T23:30:58.064Z,11.30
2017-05-06T23:33:24.900Z,11.40
2017-05-06T23:35:52.431Z,11.30
2017-05-06T23:38:19.225Z,11.30
2017-05-06T23:40:46.055Z,11.30
2017-05-06T23:43:12.844Z,11.30
2017-05-06T23:45:39.664Z,11.30
2017-05-06T23:48:07.232Z,11.30
2017-05-06T23:50:34.044Z,11.20
2017-05-06T23:53:00.855Z,11.10
2017-05-06T23:55:28.424Z,11.00
2017-05-06T23:57:55.208Z,11.10
